Time;durP1;ratioP1;P1;durP2;ratioP2;P2;SDS_P1;SDS_P2;PMS_P1;PMS_P2;Temp;Humidity;BMP_temperature;BMP_pressure;BME280_temperature;BME280_humidity;BME280_pressure;Samples;Min_cycle;Max_cycle;Signal;HPM_P1;HPM_P2
2023/04/29 00:00:20;;;;;;;;;;;19.70;99.90;;;;;;5078690;28;20330;-69
2023/04/29 00:02:47;;;;;;;;;;;19.80;99.90;;;;;;5076580;28;19912;-70
2023/04/29 00:05:13;;;;;;;;;;;19.80;99.90;;;;;;5076360;28;19916;-69
2023/04/29 00:07:40;;;;;;;;;;;19.80;99.90;;;;;;5079898;28;20438;-69
2023/04/29 00:10:07;;;;;;;;;;;19.70;99.90;;;;;;5075583;28;19943;-69
2023/04/29 00:12:34;;;;;;;;;;;19.70;99.90;;;;;;5077425;28;20030;-70
2023/04/29 00:15:01;;;;;;;;;;;19.60;99.90;;;;;;5076154;28;19916;-70
2023/04/29 00:17:28;;;;;;;;;;;19.60;99.90;;;;;;5078401;28;19912;-69
2023/04/29 00:19:55;;;;;;;;;;;19.70;99.90;;;;;;5077073;28;19915;-73
2023/04/29 00:22:22;;;;;;;;;;;19.60;99.90;;;;;;5076318;28;20361;-70
2023/04/29 00:24:49;;;;;;;;;;;19.50;99.90;;;;;;5076300;28;19958;-72
2023/04/29 00:27:16;;;;;;;;;;;19.40;99.90;;;;;;5073954;28;19912;-71
2023/04/29 00:29:43;;;;;;;;;;;19.40;99.90;;;;;;5077425;28;19935;-72
2023/04/29 00:32:09;;;;;;;;;;;19.40;99.90;;;;;;5074111;28;20657;-72
2023/04/29 00:34:36;;;;;;;;;;;19.40;99.90;;;;;;5077807;28;19912;-70
2023/04/29 00:37:03;;;;;;;;;;;19.40;99.90;;;;;;5074472;28;19916;-70
2023/04/29 00:39:29;;;;;;;;;;;19.30;99.90;;;;;;5078340;28;19916;-69
2023/04/29 00:41:56;;;;;;;;;;;19.20;99.90;;;;;;5058716;28;19924;-69
2023/04/29 00:44:23;;;;;;;;;;;19.30;99.90;;;;;;5077638;28;20014;-71
2023/04/29 00:46:49;;;;;;;;;;;19.30;99.90;;;;;;5077962;28;19969;-72
2023/04/29 00:49:16;;;;;;;;;;;19.30;99.90;;;;;;5076987;28;19916;-69
2023/04/29 00:51:43;;;;;;;;;;;19.40;99.90;;;;;;5078106;28;20007;-70
2023/04/29 00:54:13;;;;;;;;;;;19.30;99.90;;;;;;5075423;28;20070;-70
2023/04/29 00:56:43;;;;;;;;;;;19.30;99.90;;;;;;5077975;28;19951;-69
2023/04/29 00:59:11;;;;;;;;;;;19.30;99.90;;;;;;5076600;28;20315;-70
2023/04/29 01:01:38;;;;;;;;;;;19.30;99.90;;;;;;5078083;28;20412;-71
2023/04/29 01:04:05;;;;;;;;;;;19.30;99.90;;;;;;5076389;28;20031;-71
2023/04/29 01:06:41;;;;;;;;;;;19.20;99.90;;;;;;5059384;28;19919;-70
2023/04/29 01:09:26;;;;;;;;;;;19.30;99.90;;;;;;5077216;28;19920;-71
2023/04/29 01:12:07;;;;;;;;;;;19.30;99.90;;;;;;5077914;28;19908;-70
2023/04/29 01:14:35;;;;;;;;;;;19.30;99.90;;;;;;5077405;28;20700;-70
2023/04/29 01:17:08;;;;;;;;;;;19.40;99.90;;;;;;5076827;28;20265;-71
2023/04/29 01:19:39;;;;;;;;;;;19.40;99.90;;;;;;5074398;28;20007;-70
2023/04/29 01:22:05;;;;;;;;;;;19.50;99.90;;;;;;5076205;28;20324;-70
2023/04/29 01:24:32;;;;;;;;;;;19.60;99.90;;;;;;5075775;28;19999;-70
2023/04/29 01:27:03;;;;;;;;;;;19.50;99.90;;;;;;5075994;28;19923;-72
2023/04/29 01:29:29;;;;;;;;;;;19.70;99.90;;;;;;5075906;28;20560;-72
2023/04/29 01:32:08;;;;;;;;;;;19.70;99.90;;;;;;5076070;28;19919;-71
2023/04/29 01:34:34;;;;;;;;;;;19.70;99.90;;;;;;5076906;28;20022;-70
2023/04/29 01:37:04;;;;;;;;;;;19.70;99.90;;;;;;5076105;28;19911;-71
2023/04/29 01:39:56;;;;;;;;;;;19.60;99.90;;;;;;5073693;28;20392;-70
2023/04/29 01:42:34;;;;;;;;;;;19.60;99.90;;;;;;5035127;28;19916;-70
2023/04/29 01:45:04;;;;;;;;;;;19.60;99.90;;;;;;5075502;28;20331;-69
2023/04/29 01:47:31;;;;;;;;;;;19.60;99.90;;;;;;5074784;28;19982;-70
2023/04/29 01:49:58;;;;;;;;;;;19.60;99.90;;;;;;5075862;28;20449;-69
2023/04/29 01:52:25;;;;;;;;;;;19.50;99.90;;;;;;5078002;28;19912;-68
2023/04/29 01:54:51;;;;;;;;;;;19.60;99.90;;;;;;5075695;28;19962;-69
2023/04/29 01:57:18;;;;;;;;;;;19.60;99.90;;;;;;5076768;28;20369;-68
2023/04/29 01:59:45;;;;;;;;;;;19.60;99.90;;;;;;5075818;28;19919;-69
2023/04/29 02:02:14;;;;;;;;;;;19.60;99.90;;;;;;5075487;28;19965;-69
2023/04/29 02:04:41;;;;;;;;;;;19.60;99.90;;;;;;5065985;28;19916;-69
2023/04/29 02:07:08;;;;;;;;;;;19.60;99.90;;;;;;5075124;28;19919;-69
2023/04/29 02:09:35;;;;;;;;;;;19.50;99.90;;;;;;5074070;28;20036;-69
2023/04/29 02:12:03;;;;;;;;;;;19.40;99.90;;;;;;5075061;28;19919;-69
2023/04/29 02:14:30;;;;;;;;;;;19.40;99.90;;;;;;5076165;28;19948;-69
2023/04/29 02:16:57;;;;;;;;;;;19.40;99.90;;;;;;5076249;28;19908;-69
2023/04/29 02:19:24;;;;;;;;;;;19.40;99.90;;;;;;5076384;28;19915;-69
2023/04/29 02:21:50;;;;;;;;;;;19.30;99.90;;;;;;5075706;28;19973;-68
2023/04/29 02:24:17;;;;;;;;;;;19.20;99.90;;;;;;5075613;28;19916;-70
2023/04/29 02:26:44;;;;;;;;;;;19.30;99.90;;;;;;5074635;28;19908;-70
2023/04/29 02:29:11;;;;;;;;;;;19.30;99.90;;;;;;5074639;28;19922;-71
2023/04/29 02:31:37;;;;;;;;;;;19.30;99.90;;;;;;5075373;28;19959;-70
2023/04/29 02:34:04;;;;;;;;;;;19.30;99.90;;;;;;5074995;28;19908;-69
2023/04/29 02:36:31;;;;;;;;;;;19.20;99.90;;;;;;5075604;28;19924;-69
2023/04/29 02:38:58;;;;;;;;;;;19.10;99.90;;;;;;5055975;28;19915;-70
2023/04/29 02:41:25;;;;;;;;;;;19.00;99.90;;;;;;5074211;28;20304;-69
2023/04/29 02:43:52;;;;;;;;;;;19.00;99.90;;;;;;5074590;28;20362;-70
2023/04/29 02:46:18;;;;;;;;;;;19.00;99.90;;;;;;5074949;28;20057;-68
2023/04/29 02:48:45;;;;;;;;;;;18.90;99.90;;;;;;5074513;28;20008;-69
2023/04/29 02:51:12;;;;;;;;;;;19.00;99.90;;;;;;5074792;28;19909;-69
2023/04/29 02:53:38;;;;;;;;;;;19.00;99.90;;;;;;5058048;28;19916;-69
2023/04/29 02:56:05;;;;;;;;;;;19.00;99.90;;;;;;5074555;28;20705;-69
2023/04/29 02:58:32;;;;;;;;;;;18.90;99.90;;;;;;5075371;28;20314;-69
2023/04/29 03:00:58;;;;;;;;;;;18.90;99.90;;;;;;5079069;28;19915;-68
2023/04/29 03:03:25;;;;;;;;;;;18.90;99.90;;;;;;5079696;28;19915;-68
2023/04/29 03:05:52;;;;;;;;;;;19.00;99.90;;;;;;5079392;28;20558;-68
2023/04/29 03:08:18;;;;;;;;;;;19.00;99.90;;;;;;5078321;28;19967;-72
2023/04/29 03:10:45;;;;;;;;;;;19.00;99.90;;;;;;5079125;28;20325;-71
2023/04/29 03:13:12;;;;;;;;;;;19.00;99.90;;;;;;5079125;28;20372;-70
2023/04/29 03:15:39;;;;;;;;;;;19.00;99.90;;;;;;5079171;28;19904;-67
2023/04/29 03:18:05;;;;;;;;;;;19.10;99.90;;;;;;5077602;28;19959;-69
2023/04/29 03:20:32;;;;;;;;;;;19.10;99.90;;;;;;5078274;28;20018;-69
2023/04/29 03:22:59;;;;;;;;;;;19.10;99.90;;;;;;5078285;28;19912;-66
2023/04/29 03:25:27;;;;;;;;;;;19.10;99.90;;;;;;5078317;28;19912;-67
2023/04/29 03:27:54;;;;;;;;;;;19.00;99.90;;;;;;5075503;28;19919;-68
2023/04/29 03:30:21;;;;;;;;;;;19.10;99.90;;;;;;5077081;28;20273;-70
2023/04/29 03:32:47;;;;;;;;;;;19.10;99.90;;;;;;5075388;28;19908;-69
2023/04/29 03:35:14;;;;;;;;;;;19.10;99.90;;;;;;5077676;28;19908;-69
2023/04/29 03:37:43;;;;;;;;;;;19.20;99.90;;;;;;5078784;28;20271;-71
2023/04/29 03:40:10;;;;;;;;;;;19.20;99.90;;;;;;5078023;28;19916;-69
2023/04/29 03:42:37;;;;;;;;;;;19.10;99.90;;;;;;5079013;28;19912;-69
2023/04/29 03:45:04;;;;;;;;;;;19.10;99.90;;;;;;5078715;28;20384;-69
2023/04/29 03:47:31;;;;;;;;;;;19.00;99.90;;;;;;5079533;28;19919;-71
2023/04/29 03:49:57;;;;;;;;;;;19.00;99.90;;;;;;5077448;28;19912;-72
2023/04/29 03:52:24;;;;;;;;;;;19.00;99.90;;;;;;5078143;28;19918;-71
2023/04/29 03:54:51;;;;;;;;;;;19.00;99.90;;;;;;5078966;28;19921;-72
2023/04/29 03:57:18;;;;;;;;;;;19.00;99.90;;;;;;5079278;28;19961;-69
2023/04/29 03:59:48;;;;;;;;;;;18.80;99.90;;;;;;5079387;28;20380;-70
2023/04/29 04:02:16;;;;;;;;;;;18.90;99.90;;;;;;5078962;28;19914;-70
2023/04/29 04:04:42;;;;;;;;;;;18.90;99.90;;;;;;5078196;28;19908;-69
2023/04/29 04:07:10;;;;;;;;;;;19.00;99.90;;;;;;5076261;28;19916;-69
2023/04/29 04:09:40;;;;;;;;;;;19.00;99.90;;;;;;5076431;28;19999;-70
2023/04/29 04:12:07;;;;;;;;;;;19.00;99.90;;;;;;5077039;28;19999;-70
2023/04/29 04:14:34;;;;;;;;;;;19.00;99.90;;;;;;5077330;28;19955;-72
2023/04/29 04:17:00;;;;;;;;;;;19.00;99.90;;;;;;5077166;28;19955;-69
2023/04/29 04:19:28;;;;;;;;;;;19.00;99.90;;;;;;5077558;28;19908;-70
2023/04/29 04:21:54;;;;;;;;;;;19.00;99.90;;;;;;5079168;28;19912;-68
2023/04/29 04:24:22;;;;;;;;;;;19.00;99.90;;;;;;5079030;28;20011;-68
2023/04/29 04:26:48;;;;;;;;;;;18.90;99.90;;;;;;5078983;28;19908;-70
2023/04/29 04:29:15;;;;;;;;;;;19.00;99.90;;;;;;5077699;28;19918;-69
2023/04/29 04:31:42;;;;;;;;;;;18.90;99.90;;;;;;5078456;28;20295;-67
2023/04/29 04:34:08;;;;;;;;;;;18.90;99.90;;;;;;5078048;28;19999;-70
2023/04/29 04:36:35;;;;;;;;;;;18.90;99.90;;;;;;5077498;28;20284;-70
2023/04/29 04:39:02;;;;;;;;;;;18.90;99.90;;;;;;5077695;28;19912;-69
2023/04/29 04:41:30;;;;;;;;;;;18.90;99.90;;;;;;5077949;28;20258;-70
2023/04/29 04:43:57;;;;;;;;;;;19.00;99.90;;;;;;5078557;28;19912;-70
2023/04/29 04:46:24;;;;;;;;;;;19.00;99.90;;;;;;5078128;28;19912;-69
2023/04/29 04:48:51;;;;;;;;;;;19.00;99.90;;;;;;5077829;28;19917;-69
2023/04/29 04:51:18;;;;;;;;;;;19.00;99.90;;;;;;5077243;28;19908;-69
2023/04/29 04:53:45;;;;;;;;;;;19.10;99.90;;;;;;5077967;28;19909;-70
2023/04/29 04:56:11;;;;;;;;;;;19.20;99.90;;;;;;5077629;28;19908;-71
2023/04/29 04:58:38;;;;;;;;;;;19.20;99.90;;;;;;5077058;28;19915;-70
2023/04/29 05:01:05;;;;;;;;;;;19.40;99.90;;;;;;5077579;28;19912;-72
2023/04/29 05:03:31;;;;;;;;;;;19.40;99.90;;;;;;5078230;28;19908;-68
2023/04/29 05:05:59;;;;;;;;;;;19.30;99.90;;;;;;5078431;28;19908;-72
2023/04/29 05:08:26;;;;;;;;;;;19.30;99.90;;;;;;5077282;28;19923;-68
2023/04/29 05:10:52;;;;;;;;;;;19.40;99.90;;;;;;5076603;28;19923;-71
2023/04/29 05:13:19;;;;;;;;;;;19.30;99.90;;;;;;5077215;28;20401;-68
2023/04/29 05:15:46;;;;;;;;;;;19.30;99.90;;;;;;5077635;28;20254;-68
2023/04/29 05:18:12;;;;;;;;;;;19.30;99.90;;;;;;5077466;28;19908;-68
2023/04/29 05:20:39;;;;;;;;;;;19.20;99.90;;;;;;5076486;28;19909;-69
2023/04/29 05:23:06;;;;;;;;;;;19.20;99.90;;;;;;5077530;28;19916;-71
2023/04/29 05:25:32;;;;;;;;;;;19.30;99.90;;;;;;5077451;28;19912;-68
2023/04/29 05:28:04;;;;;;;;;;;19.30;99.90;;;;;;5077844;28;19920;-69
2023/04/29 05:30:31;;;;;;;;;;;19.30;99.90;;;;;;5077425;28;19919;-68
2023/04/29 05:32:57;;;;;;;;;;;19.20;99.90;;;;;;5076960;28;19912;-69
2023/04/29 05:35:24;;;;;;;;;;;19.30;99.90;;;;;;5076069;28;19908;-71
2023/04/29 05:37:51;;;;;;;;;;;19.20;99.90;;;;;;5058583;28;20222;-70
2023/04/29 05:40:17;;;;;;;;;;;19.10;99.90;;;;;;5077210;28;20329;-69
2023/04/29 05:42:44;;;;;;;;;;;19.20;99.90;;;;;;5076650;28;19908;-70
2023/04/29 05:45:11;;;;;;;;;;;19.20;99.90;;;;;;5077192;28;20445;-71
2023/04/29 05:47:38;;;;;;;;;;;19.20;99.90;;;;;;5077617;28;19969;-69
2023/04/29 05:50:05;;;;;;;;;;;19.10;99.90;;;;;;5077533;28;19912;-69
2023/04/29 05:52:31;;;;;;;;;;;19.10;99.90;;;;;;5076190;28;19946;-69
2023/04/29 05:54:58;;;;;;;;;;;19.10;99.90;;;;;;5076735;28;20039;-70
2023/04/29 05:57:24;;;;;;;;;;;19.10;99.90;;;;;;5076417;28;19912;-68
2023/04/29 05:59:53;;;;;;;;;;;19.10;99.90;;;;;;5076500;28;19908;-69
2023/04/29 06:02:20;;;;;;;;;;;19.00;99.90;;;;;;5076647;28;20380;-70
2023/04/29 06:04:47;;;;;;;;;;;19.00;99.90;;;;;;5076151;28;19908;-69
2023/04/29 06:07:13;;;;;;;;;;;18.90;99.90;;;;;;5077077;28;19912;-71
2023/04/29 06:09:41;;;;;;;;;;;18.90;99.90;;;;;;5076848;28;19908;-71
2023/04/29 06:12:08;;;;;;;;;;;18.90;99.90;;;;;;5077810;28;20280;-71
2023/04/29 06:14:34;;;;;;;;;;;18.80;99.90;;;;;;5075666;28;19912;-71
2023/04/29 06:17:02;;;;;;;;;;;18.80;99.90;;;;;;5076511;28;19944;-70
2023/04/29 06:19:31;;;;;;;;;;;18.80;99.90;;;;;;5076014;28;19908;-71
2023/04/29 06:21:58;;;;;;;;;;;18.80;99.90;;;;;;5068155;28;20380;-70
2023/04/29 06:24:24;;;;;;;;;;;18.70;99.90;;;;;;5076462;28;19908;-72
2023/04/29 06:26:54;;;;;;;;;;;18.70;99.90;;;;;;5075939;28;19919;-71
2023/04/29 06:29:21;;;;;;;;;;;18.70;99.90;;;;;;5075947;28;19960;-71
2023/04/29 06:31:48;;;;;;;;;;;18.70;99.90;;;;;;5076191;28;19947;-70
2023/04/29 06:34:14;;;;;;;;;;;18.70;99.90;;;;;;5079174;28;19915;-73
2023/04/29 06:36:41;;;;;;;;;;;18.70;99.90;;;;;;5081250;28;20317;-72
2023/04/29 06:39:08;;;;;;;;;;;18.70;99.90;;;;;;5080518;28;19923;-72
2023/04/29 06:41:35;;;;;;;;;;;18.70;99.90;;;;;;5079228;28;19969;-70
2023/04/29 06:44:02;;;;;;;;;;;18.60;99.90;;;;;;5080699;28;19912;-72
2023/04/29 06:46:29;;;;;;;;;;;18.70;99.90;;;;;;5080307;28;19931;-72
2023/04/29 06:48:55;;;;;;;;;;;18.60;99.90;;;;;;5079455;28;20387;-71
2023/04/29 06:51:22;;;;;;;;;;;18.60;99.90;;;;;;5062000;28;20015;-71
2023/04/29 06:53:49;;;;;;;;;;;18.60;99.90;;;;;;5080997;28;19995;-70
2023/04/29 06:56:15;;;;;;;;;;;18.60;99.90;;;;;;5080754;28;19912;-69
2023/04/29 06:58:42;;;;;;;;;;;18.50;99.90;;;;;;5079675;28;20779;-69
2023/04/29 07:01:09;;;;;;;;;;;18.50;99.90;;;;;;5079698;28;19908;-70
2023/04/29 07:03:36;;;;;;;;;;;18.50;99.90;;;;;;5079429;28;19915;-69
2023/04/29 07:06:03;;;;;;;;;;;18.50;99.90;;;;;;5079605;28;19916;-71
2023/04/29 07:08:30;;;;;;;;;;;18.50;99.90;;;;;;5079632;28;20518;-69
2023/04/29 07:10:57;;;;;;;;;;;18.50;99.90;;;;;;5079246;28;19953;-71
2023/04/29 07:13:24;;;;;;;;;;;18.50;99.90;;;;;;5080318;28;19908;-71
2023/04/29 07:15:51;;;;;;;;;;;18.40;99.90;;;;;;5080271;28;19922;-71
2023/04/29 07:18:18;;;;;;;;;;;18.40;99.90;;;;;;5080377;28;19915;-70
2023/04/29 07:20:46;;;;;;;;;;;18.40;99.90;;;;;;5079157;28;20057;-70
2023/04/29 07:23:13;;;;;;;;;;;18.40;99.90;;;;;;5079375;28;20020;-72
2023/04/29 07:25:40;;;;;;;;;;;18.30;99.90;;;;;;5079279;28;19908;-69
2023/04/29 07:28:09;;;;;;;;;;;18.40;99.90;;;;;;5079408;28;19920;-70
2023/04/29 07:30:36;;;;;;;;;;;18.30;99.90;;;;;;5078927;28;19912;-71
2023/04/29 07:33:03;;;;;;;;;;;18.30;99.90;;;;;;5078919;28;19919;-70
2023/04/29 07:35:30;;;;;;;;;;;18.30;99.90;;;;;;5079573;28;20332;-70
2023/04/29 07:37:57;;;;;;;;;;;18.20;99.90;;;;;;5079624;28;19908;-71
2023/04/29 07:40:23;;;;;;;;;;;18.20;99.90;;;;;;5079938;28;20357;-72
2023/04/29 07:42:50;;;;;;;;;;;18.20;99.90;;;;;;5078909;28;19915;-70
2023/04/29 07:45:17;;;;;;;;;;;18.10;99.90;;;;;;5078984;28;19916;-69
2023/04/29 07:47:44;;;;;;;;;;;18.10;99.90;;;;;;5079419;28;19924;-70
2023/04/29 07:50:11;;;;;;;;;;;18.00;99.90;;;;;;5078830;28;19959;-71
2023/04/29 07:52:37;;;;;;;;;;;18.10;99.90;;;;;;5078634;28;20313;-69
2023/04/29 07:55:04;;;;;;;;;;;18.00;99.90;;;;;;5078339;28;19908;-69
2023/04/29 07:57:31;;;;;;;;;;;18.00;99.90;;;;;;5079399;28;19918;-69
2023/04/29 07:59:58;;;;;;;;;;;18.10;99.90;;;;;;5079836;28;20007;-70
2023/04/29 08:02:24;;;;;;;;;;;18.00;99.90;;;;;;5079402;28;19915;-70
2023/04/29 08:04:52;;;;;;;;;;;18.00;99.90;;;;;;5077965;28;20720;-71
2023/04/29 08:07:19;;;;;;;;;;;18.00;99.90;;;;;;5078432;28;19916;-72
2023/04/29 08:09:46;;;;;;;;;;;18.10;99.90;;;;;;5078730;28;19973;-72
2023/04/29 08:12:12;;;;;;;;;;;18.00;99.90;;;;;;5078158;28;19965;-70
2023/04/29 08:14:39;;;;;;;;;;;18.00;99.90;;;;;;5078566;28;19915;-69
2023/04/29 08:17:07;;;;;;;;;;;18.00;99.90;;;;;;5078072;28;19912;-70
2023/04/29 08:19:33;;;;;;;;;;;17.90;99.90;;;;;;5079081;28;20284;-71
2023/04/29 08:22:00;;;;;;;;;;;17.90;99.90;;;;;;5079336;28;19908;-71
2023/04/29 08:24:28;;;;;;;;;;;17.90;99.90;;;;;;5078866;28;19908;-69
2023/04/29 08:26:55;;;;;;;;;;;17.90;99.90;;;;;;5077795;28;19908;-68
2023/04/29 08:29:21;;;;;;;;;;;18.00;99.90;;;;;;5077971;28;19920;-70
2023/04/29 08:31:48;;;;;;;;;;;17.90;99.90;;;;;;5077920;28;20006;-70
2023/04/29 08:34:15;;;;;;;;;;;18.00;99.90;;;;;;5077628;28;19965;-69
2023/04/29 08:36:42;;;;;;;;;;;18.00;99.90;;;;;;5077934;28;19908;-70
2023/04/29 08:39:08;;;;;;;;;;;18.00;99.90;;;;;;5077779;28;19908;-71
2023/04/29 08:41:36;;;;;;;;;;;17.90;99.90;;;;;;5078927;28;20399;-69
2023/04/29 08:44:03;;;;;;;;;;;17.90;99.90;;;;;;5078273;28;19912;-71
2023/04/29 08:46:30;;;;;;;;;;;18.00;99.90;;;;;;5078345;28;19908;-69
2023/04/29 08:48:57;;;;;;;;;;;18.00;99.90;;;;;;5077127;28;19916;-70
2023/04/29 08:51:23;;;;;;;;;;;18.00;99.90;;;;;;5077840;28;20425;-71
2023/04/29 08:53:50;;;;;;;;;;;18.00;99.90;;;;;;5077897;28;19939;-71
2023/04/29 08:56:20;;;;;;;;;;;18.00;99.90;;;;;;5076968;28;20331;-70
2023/04/29 08:58:53;;;;;;;;;;;18.10;99.90;;;;;;5077388;28;19908;-69
2023/04/29 09:01:20;;;;;;;;;;;18.00;99.90;;;;;;5077810;28;19940;-69
2023/04/29 09:03:51;;;;;;;;;;;18.10;99.90;;;;;;5077327;28;20357;-70
2023/04/29 09:06:18;;;;;;;;;;;18.00;99.90;;;;;;5076688;28;19908;-69
2023/04/29 09:08:45;;;;;;;;;;;18.10;99.90;;;;;;5076119;28;20274;-70
2023/04/29 09:11:12;;;;;;;;;;;18.10;99.90;;;;;;5077602;28;19923;-72
2023/04/29 09:13:38;;;;;;;;;;;18.00;99.90;;;;;;5078620;28;20000;-72
2023/04/29 09:16:10;;;;;;;;;;;18.00;99.90;;;;;;5077433;28;19908;-71
2023/04/29 09:18:47;;;;;;;;;;;18.00;99.90;;;;;;5059904;28;19940;-70
2023/04/29 09:21:14;;;;;;;;;;;18.00;99.90;;;;;;5077398;28;19911;-72
2023/04/29 09:23:41;;;;;;;;;;;18.00;99.90;;;;;;5078480;28;20080;-71
2023/04/29 09:26:08;;;;;;;;;;;18.00;99.90;;;;;;5077375;28;19919;-71
2023/04/29 09:28:34;;;;;;;;;;;18.00;99.90;;;;;;5077338;28;19924;-72
2023/04/29 09:31:05;;;;;;;;;;;17.90;99.90;;;;;;5076541;28;20064;-73
2023/04/29 09:33:32;;;;;;;;;;;18.00;99.90;;;;;;5076801;28;19919;-73
2023/04/29 09:35:59;;;;;;;;;;;18.00;99.90;;;;;;5076880;28;19915;-70
2023/04/29 09:38:26;;;;;;;;;;;18.00;99.90;;;;;;5058667;28;19919;-69
2023/04/29 09:40:55;;;;;;;;;;;18.00;99.90;;;;;;5077208;28;20045;-68
2023/04/29 09:43:22;;;;;;;;;;;18.10;99.90;;;;;;5074919;28;19920;-68
2023/04/29 09:45:49;;;;;;;;;;;18.10;99.90;;;;;;5076472;28;20017;-70
2023/04/29 09:48:16;;;;;;;;;;;18.10;99.90;;;;;;5077053;28;20418;-68
2023/04/29 09:50:43;;;;;;;;;;;18.00;99.90;;;;;;5077960;28;20345;-67
2023/04/29 09:53:10;;;;;;;;;;;17.90;99.90;;;;;;5076934;28;20365;-68
2023/04/29 09:55:57;;;;;;;;;;;17.90;99.90;;;;;;5076646;28;19919;-70
2023/04/29 09:58:28;;;;;;;;;;;17.90;99.90;;;;;;5075561;28;19947;-69
2023/04/29 10:00:58;;;;;;;;;;;17.90;99.90;;;;;;5076384;28;19954;-68
2023/04/29 10:03:26;;;;;;;;;;;17.80;99.90;;;;;;5075924;28;19908;-68
2023/04/29 10:05:52;;;;;;;;;;;17.80;99.90;;;;;;5076625;28;19923;-70
2023/04/29 10:08:20;;;;;;;;;;;17.80;99.90;;;;;;5075338;28;20269;-69
2023/04/29 10:10:47;;;;;;;;;;;17.80;99.90;;;;;;5077919;28;19908;-69
2023/04/29 10:13:14;;;;;;;;;;;17.80;99.90;;;;;;5076314;28;19908;-68
2023/04/29 10:15:47;;;;;;;;;;;17.80;99.90;;;;;;5076382;28;19912;-70
2023/04/29 10:18:18;;;;;;;;;;;17.80;99.90;;;;;;5076046;28;20002;-70
2023/04/29 10:20:46;;;;;;;;;;;17.80;99.90;;;;;;5076794;28;19912;-69
2023/04/29 10:23:14;;;;;;;;;;;17.80;99.90;;;;;;5075511;28;19912;-69
2023/04/29 10:25:45;;;;;;;;;;;17.80;99.90;;;;;;5076469;28;20662;-72
2023/04/29 10:28:15;;;;;;;;;;;17.80;99.90;;;;;;5075562;28;20003;-69
2023/04/29 10:30:43;;;;;;;;;;;17.80;99.90;;;;;;5076208;28;19908;-71
2023/04/29 10:33:11;;;;;;;;;;;17.80;99.90;;;;;;5075532;28;19923;-71
2023/04/29 10:35:38;;;;;;;;;;;17.80;99.90;;;;;;5077789;28;19912;-72
2023/04/29 10:38:08;;;;;;;;;;;17.70;99.90;;;;;;5075395;28;20364;-72
2023/04/29 10:40:45;;;;;;;;;;;17.70;99.90;;;;;;5077715;28;19921;-74
2023/04/29 10:43:12;;;;;;;;;;;17.60;99.90;;;;;;5075770;28;20672;-72
2023/04/29 10:45:39;;;;;;;;;;;17.60;99.90;;;;;;5077610;28;19962;-69
2023/04/29 10:48:12;;;;;;;;;;;17.50;99.90;;;;;;5075587;28;19923;-68
2023/04/29 10:50:48;;;;;;;;;;;17.60;99.90;;;;;;5077294;28;19908;-69
2023/04/29 10:53:16;;;;;;;;;;;17.60;99.90;;;;;;5075641;28;19984;-71
2023/04/29 10:55:46;;;;;;;;;;;17.60;99.90;;;;;;5077775;28;20345;-69
2023/04/29 10:58:30;;;;;;;;;;;17.60;99.90;;;;;;5075619;28;19912;-68
2023/04/29 11:00:58;;;;;;;;;;;17.60;99.90;;;;;;5075853;28;19912;-70
2023/04/29 11:03:43;;;;;;;;;;;17.50;99.90;;;;;;5076426;28;19998;-69
2023/04/29 11:06:10;;;;;;;;;;;17.60;99.90;;;;;;5075700;28;19908;-69
2023/04/29 11:08:40;;;;;;;;;;;17.50;99.90;;;;;;5076944;28;19962;-69
2023/04/29 11:11:07;;;;;;;;;;;17.50;99.90;;;;;;5075262;28;19919;-69
2023/04/29 11:13:45;;;;;;;;;;;17.50;99.90;;;;;;5076924;28;19909;-69
2023/04/29 11:16:12;;;;;;;;;;;17.50;99.90;;;;;;5074945;28;19908;-70
2023/04/29 11:18:57;;;;;;;;;;;17.50;99.90;;;;;;5077206;28;19912;-68
2023/04/29 11:21:24;;;;;;;;;;;17.50;99.90;;;;;;5078266;28;20278;-67
2023/04/29 11:23:51;;;;;;;;;;;17.50;99.90;;;;;;5078383;28;19995;-69
2023/04/29 11:26:21;;;;;;;;;;;17.50;99.90;;;;;;5078502;28;19908;-70
2023/04/29 11:28:47;;;;;;;;;;;17.50;99.90;;;;;;5081096;28;19916;-69
2023/04/29 11:31:14;;;;;;;;;;;17.50;99.90;;;;;;5078642;28;19912;-69
2023/04/29 11:33:41;;;;;;;;;;;17.40;99.90;;;;;;5080428;28;19908;-70
2023/04/29 11:36:08;;;;;;;;;;;17.50;99.90;;;;;;5078125;28;19915;-70
2023/04/29 11:38:38;;;;;;;;;;;17.50;99.90;;;;;;5080232;28;19912;-70
2023/04/29 11:41:05;;;;;;;;;;;17.50;99.90;;;;;;5078956;28;19920;-70
2023/04/29 11:43:32;;;;;;;;;;;17.50;99.90;;;;;;5080093;28;19994;-70
2023/04/29 11:45:59;;;;;;;;;;;17.50;99.90;;;;;;5080317;28;19908;-70
2023/04/29 11:48:26;;;;;;;;;;;17.50;99.90;;;;;;5077228;28;20735;-68
2023/04/29 11:50:54;;;;;;;;;;;17.60;99.90;;;;;;5080125;28;19947;-71
2023/04/29 11:53:21;;;;;;;;;;;17.50;99.90;;;;;;5077931;28;19991;-70
2023/04/29 11:55:47;;;;;;;;;;;17.50;99.90;;;;;;5080394;28;19916;-71
2023/04/29 11:58:17;;;;;;;;;;;17.50;99.90;;;;;;5077398;28;19912;-71
2023/04/29 12:00:44;;;;;;;;;;;17.40;99.90;;;;;;5079535;28;19962;-69
2023/04/29 12:03:14;;;;;;;;;;;17.30;99.90;;;;;;5078860;28;20392;-69
2023/04/29 12:05:56;;;;;;;;;;;17.40;99.90;;;;;;5079533;28;20361;-70
2023/04/29 12:08:24;;;;;;;;;;;17.40;99.90;;;;;;5077880;28;20333;-69
2023/04/29 12:10:51;;;;;;;;;;;17.40;99.90;;;;;;5080057;28;19919;-69
2023/04/29 12:13:19;;;;;;;;;;;17.40;99.90;;;;;;5077400;28;19909;-69
2023/04/29 12:15:47;;;;;;;;;;;17.30;99.90;;;;;;5079028;28;19908;-70
2023/04/29 12:18:14;;;;;;;;;;;17.30;99.90;;;;;;5077670;28;20369;-69
2023/04/29 12:20:41;;;;;;;;;;;17.30;99.90;;;;;;5079506;28;19910;-69
2023/04/29 12:23:14;;;;;;;;;;;17.30;99.90;;;;;;5079697;28;19908;-69
2023/04/29 12:25:41;;;;;;;;;;;17.40;99.90;;;;;;5079444;28;19912;-69
2023/04/29 12:28:14;;;;;;;;;;;17.40;99.90;;;;;;5079189;28;19912;-69
2023/04/29 12:30:43;;;;;;;;;;;17.30;99.90;;;;;;5078241;28;20361;-69
2023/04/29 12:33:09;;;;;;;;;;;17.40;99.90;;;;;;5079178;28;20361;-69
2023/04/29 12:35:36;;;;;;;;;;;17.30;99.90;;;;;;5076870;28;20002;-68
2023/04/29 12:38:03;;;;;;;;;;;17.30;99.90;;;;;;5078878;28;19912;-70
2023/04/29 12:40:29;;;;;;;;;;;17.20;99.90;;;;;;5077287;28;19928;-69
2023/04/29 12:42:56;;;;;;;;;;;17.20;99.90;;;;;;5079067;28;19931;-70
2023/04/29 12:45:27;;;;;;;;;;;17.20;99.90;;;;;;5076922;28;19912;-68
2023/04/29 12:47:55;;;;;;;;;;;17.20;99.90;;;;;;5078747;28;20015;-69
2023/04/29 12:50:32;;;;;;;;;;;17.10;99.90;;;;;;5058526;28;19915;-71
2023/04/29 12:52:59;;;;;;;;;;;16.90;99.90;;;;;;5079367;28;19958;-70
2023/04/29 12:55:25;;;;;;;;;;;16.70;99.90;;;;;;5077047;28;19912;-69
2023/04/29 12:57:52;;;;;;;;;;;16.60;99.90;;;;;;5078631;28;19908;-70
2023/04/29 13:00:22;;;;;;;;;;;16.50;99.90;;;;;;5059282;28;20011;-70
2023/04/29 13:02:48;;;;;;;;;;;16.40;99.90;;;;;;5078509;28;20284;-69
2023/04/29 13:05:15;;;;;;;;;;;16.30;99.90;;;;;;5078443;28;20281;-71
2023/04/29 13:07:42;;;;;;;;;;;16.20;99.90;;;;;;5076474;28;20380;-69
2023/04/29 13:10:11;;;;;;;;;;;16.10;99.90;;;;;;5077909;28;20019;-72
2023/04/29 13:12:38;;;;;;;;;;;16.10;99.90;;;;;;5076410;28;19908;-70
2023/04/29 13:15:06;;;;;;;;;;;16.00;99.90;;;;;;5078602;28;19908;-69
2023/04/29 13:17:33;;;;;;;;;;;15.90;99.90;;;;;;5076863;28;19912;-69
2023/04/29 13:20:00;;;;;;;;;;;15.90;99.90;;;;;;5078436;28;20368;-70
2023/04/29 13:22:26;;;;;;;;;;;15.80;99.90;;;;;;5075926;28;19909;-69
2023/04/29 13:24:53;;;;;;;;;;;15.80;99.90;;;;;;5078257;28;19915;-70
2023/04/29 13:27:20;;;;;;;;;;;15.90;99.90;;;;;;5078002;28;19912;-70
2023/04/29 13:29:46;;;;;;;;;;;15.90;99.90;;;;;;5077316;28;19995;-70
2023/04/29 13:32:14;;;;;;;;;;;15.80;99.90;;;;;;5078364;28;19959;-70
2023/04/29 13:34:43;;;;;;;;;;;15.80;99.90;;;;;;5057463;28;19912;-70
2023/04/29 13:37:11;;;;;;;;;;;15.70;99.90;;;;;;5078248;28;19913;-70
2023/04/29 13:39:37;;;;;;;;;;;15.70;99.90;;;;;;5075194;28;19919;-69
2023/04/29 13:42:05;;;;;;;;;;;15.70;99.90;;;;;;5078204;28;19919;-68
2023/04/29 13:44:31;;;;;;;;;;;15.60;99.90;;;;;;5076376;28;19923;-68
2023/04/29 13:46:58;;;;;;;;;;;15.60;99.90;;;;;;5059526;28;20055;-69
2023/04/29 13:49:26;;;;;;;;;;;15.50;99.90;;;;;;5077439;28;19951;-71
2023/04/29 13:51:52;;;;;;;;;;;15.50;99.90;;;;;;5076843;28;19908;-69
2023/04/29 13:54:20;;;;;;;;;;;15.50;99.90;;;;;;5078358;28;19908;-69
2023/04/29 13:56:47;;;;;;;;;;;15.50;99.90;;;;;;5074648;28;19950;-69
2023/04/29 13:59:13;;;;;;;;;;;15.40;99.90;;;;;;5078441;28;20056;-68
2023/04/29 14:01:40;;;;;;;;;;;15.40;99.90;;;;;;5075701;28;19931;-68
2023/04/29 14:04:07;;;;;;;;;;;15.40;99.90;;;;;;5077388;28;19942;-68
2023/04/29 14:06:33;;;;;;;;;;;15.40;99.90;;;;;;5075065;28;19908;-69
2023/04/29 14:09:00;;;;;;;;;;;15.40;99.90;;;;;;5074743;28;19925;-68
2023/04/29 14:11:27;;;;;;;;;;;15.40;99.90;;;;;;5075986;28;19915;-68
2023/04/29 14:13:54;;;;;;;;;;;15.30;99.90;;;;;;5075545;28;19915;-69
2023/04/29 14:16:20;;;;;;;;;;;15.40;99.90;;;;;;5078488;28;19908;-67
2023/04/29 14:18:47;;;;;;;;;;;15.40;99.90;;;;;;5078666;28;20273;-69